Time;durP1;ratioP1;P1;durP2;ratioP2;P2;SDS_P1;SDS_P2;PMS_P1;PMS_P2;Temp;Humidity;BMP_temperature;BMP_pressure;BME280_temperature;BME280_humidity;BME280_pressure;Samples;Min_cycle;Max_cycle;Signal;HPM_P1;HPM_P2
2023/01/16 00:00:50;;;;;;;46.35;26.80;;;6.70;99.90;;;;;;5014925;28;20053;-72
2023/01/16 00:03:16;;;;;;;46.65;27.67;;;6.70;99.90;;;;;;5014493;28;20068;-71
2023/01/16 00:05:42;;;;;;;49.25;28.67;;;6.70;99.90;;;;;;5014719;28;20022;-71
2023/01/16 00:08:08;;;;;;;51.90;30.85;;;6.70;99.90;;;;;;5014750;28;20026;-72
2023/01/16 00:10:34;;;;;;;43.50;28.08;;;6.70;99.90;;;;;;5014539;28;20141;-72
2023/01/16 00:13:00;;;;;;;46.78;24.75;;;6.70;99.90;;;;;;5014587;28;20022;-72
2023/01/16 00:15:26;;;;;;;45.03;26.75;;;6.70;99.90;;;;;;5014051;28;20026;-73
2023/01/16 00:17:52;;;;;;;48.28;27.23;;;6.70;99.90;;;;;;5013226;28;20406;-73
2023/01/16 00:20:18;;;;;;;51.85;35.33;;;6.70;99.90;;;;;;5013526;28;20025;-73
2023/01/16 00:22:44;;;;;;;51.80;31.95;;;6.70;99.90;;;;;;5014256;28;20113;-72
2023/01/16 00:25:10;;;;;;;53.25;32.33;;;6.70;99.90;;;;;;5014525;28;20106;-71
2023/01/16 00:27:36;;;;;;;47.92;31.02;;;6.70;99.90;;;;;;5014369;28;20045;-71
2023/01/16 00:30:03;;;;;;;45.70;28.33;;;6.70;99.90;;;;;;4998752;28;20029;-72
2023/01/16 00:32:29;;;;;;;39.35;25.58;;;6.70;99.90;;;;;;5014338;28;20381;-73
2023/01/16 00:34:54;;;;;;;49.00;28.80;;;6.60;99.90;;;;;;5014238;28;20030;-72
2023/01/16 00:37:20;;;;;;;40.78;25.88;;;6.70;99.90;;;;;;5014458;28;20018;-72
2023/01/16 00:39:46;;;;;;;39.47;22.15;;;6.70;99.90;;;;;;4996565;28;20084;-72
2023/01/16 00:42:12;;;;;;;38.88;24.15;;;6.60;99.90;;;;;;5009742;28;20030;-72
2023/01/16 00:44:38;;;;;;;42.45;25.67;;;6.60;99.90;;;;;;5013219;28;20026;-72
2023/01/16 00:47:05;;;;;;;50.10;27.40;;;6.60;99.90;;;;;;5013437;28;20050;-71
2023/01/16 00:49:31;;;;;;;37.78;23.15;;;6.60;99.90;;;;;;5013081;28;20077;-72
2023/01/16 00:51:56;;;;;;;38.42;24.58;;;6.60;99.90;;;;;;5013118;28;20030;-71
2023/01/16 00:54:22;;;;;;;46.20;27.33;;;6.60;99.90;;;;;;5012415;28;20097;-72
2023/01/16 00:56:48;;;;;;;38.13;22.73;;;6.60;99.90;;;;;;5013721;28;20049;-71
2023/01/16 00:59:14;;;;;;;38.78;25.17;;;6.50;99.90;;;;;;5013675;28;20032;-72
2023/01/16 01:01:40;;;;;;;39.20;25.58;;;6.50;99.90;;;;;;5013792;28;20033;-72
2023/01/16 01:04:06;;;;;;;41.95;24.60;;;6.50;99.90;;;;;;5013369;28;20388;-72
2023/01/16 01:06:33;;;;;;;44.08;26.48;;;6.40;99.90;;;;;;5013833;28;20026;-72
2023/01/16 01:08:58;;;;;;;43.92;28.25;;;6.40;99.90;;;;;;5012721;28;20018;-72
2023/01/16 01:11:25;;;;;;;44.85;27.15;;;6.30;99.90;;;;;;5013009;28;20045;-71
2023/01/16 01:13:50;;;;;;;42.90;26.50;;;6.30;99.90;;;;;;5013737;28;20046;-71
2023/01/16 01:16:16;;;;;;;43.67;27.60;;;6.30;99.90;;;;;;5013244;28;20072;-71
2023/01/16 01:18:42;;;;;;;42.58;26.85;;;6.30;99.90;;;;;;5013237;28;20022;-72
2023/01/16 01:21:09;;;;;;;43.53;26.77;;;6.20;99.90;;;;;;5013322;28;20885;-72
2023/01/16 01:23:35;;;;;;;43.63;24.90;;;6.10;99.90;;;;;;5013311;28;20032;-73
2023/01/16 01:26:13;;;;;;;42.15;26.13;;;6.10;99.90;;;;;;5013170;28;20125;-72
2023/01/16 01:28:39;;;;;;;47.45;25.77;;;6.10;99.90;;;;;;5013294;28;20033;-72
2023/01/16 01:31:07;;;;;;;45.95;26.67;;;6.00;99.90;;;;;;5013155;28;20060;-75
2023/01/16 01:33:34;;;;;;;44.72;24.88;;;6.00;99.90;;;;;;5012857;28;20500;-72
2023/01/16 01:35:59;;;;;;;40.45;23.70;;;6.00;99.90;;;;;;5013237;28;20030;-74
2023/01/16 01:38:26;;;;;;;43.53;25.58;;;6.00;99.90;;;;;;5012999;28;20029;-74
2023/01/16 01:40:52;;;;;;;40.97;24.33;;;6.00;99.90;;;;;;5013059;28;20022;-74
2023/01/16 01:43:19;;;;;;;38.53;22.67;;;6.00;99.90;;;;;;5013079;28;20477;-74
2023/01/16 01:45:54;;;;;;;42.45;25.52;;;5.90;99.90;;;;;;5012242;28;20042;-74
2023/01/16 01:48:29;;;;;;;42.20;24.92;;;5.90;99.90;;;;;;5011826;28;20034;-74
2023/01/16 01:51:03;;;;;;;41.47;25.95;;;5.90;99.90;;;;;;5012831;28;20489;-73
2023/01/16 01:53:41;;;;;;;44.45;25.88;;;5.90;99.90;;;;;;5012869;28;20061;-73
2023/01/16 01:56:23;;;;;;;45.30;24.17;;;5.80;99.90;;;;;;5013096;28;20022;-73
2023/01/16 01:58:53;;;;;;;41.92;25.27;;;5.80;99.90;;;;;;5013434;28;20022;-74
2023/01/16 02:01:19;;;;;;;39.45;24.23;;;5.80;99.90;;;;;;5013406;28;20021;-73
2023/01/16 02:03:51;;;;;;;38.47;22.80;;;5.80;99.90;;;;;;5013330;28;20032;-73
2023/01/16 02:06:25;;;;;;;40.93;24.20;;;5.80;99.90;;;;;;5012995;28;20385;-73
2023/01/16 02:08:53;;;;;;;38.42;23.88;;;5.80;99.90;;;;;;5012474;28;20627;-73
2023/01/16 02:11:25;;;;;;;41.17;24.50;;;5.80;99.90;;;;;;5013192;28;20048;-73
2023/01/16 02:14:05;;;;;;;37.03;22.27;;;5.90;99.90;;;;;;5013316;28;20062;-73
2023/01/16 02:19:54;;;;;;;37.78;23.17;;;5.90;99.90;;;;;;5012928;28;20036;-73
2023/01/16 02:22:26;;;;;;;40.72;22.95;;;5.90;99.90;;;;;;4933099;29;20099;-72
2023/01/16 02:25:25;;;;;;;37.25;23.75;;;6.00;99.90;;;;;;4933737;29;20074;-73
2023/01/16 02:28:03;;;;;;;35.58;22.73;;;6.00;99.90;;;;;;4915060;29;20040;-73
2023/01/16 02:30:50;;;;;;;51.08;25.38;;;6.00;99.90;;;;;;4914516;28;20055;-73
2023/01/16 02:33:45;;;;;;;41.80;26.05;;;6.10;99.90;;;;;;4914457;29;20625;-73
2023/01/16 02:36:29;;;;;;;37.47;24.92;;;6.10;99.90;;;;;;4914222;29;20559;-73
2023/01/16 02:39:15;;;;;;;41.50;24.65;;;6.10;99.90;;;;;;4914596;28;20147;-73
2023/01/16 02:41:49;;;;;;;43.47;24.67;;;6.10;99.90;;;;;;4914553;29;20076;-73
2023/01/16 02:44:36;;;;;;;44.97;26.42;;;6.10;99.90;;;;;;4914511;29;20044;-72
2023/01/16 02:47:22;;;;;;;47.03;26.00;;;6.10;99.90;;;;;;4923644;29;20056;-72
2023/01/16 02:50:00;;;;;;;36.00;22.33;;;6.10;99.90;;;;;;4914184;29;20120;-73
2023/01/16 02:52:39;;;;;;;42.67;23.45;;;6.00;99.90;;;;;;4914646;29;20127;-74
2023/01/16 02:55:22;;;;;;;38.33;21.98;;;6.10;99.90;;;;;;4914236;29;20111;-73
2023/01/16 02:57:53;;;;;;;42.88;24.70;;;6.00;99.90;;;;;;4924459;28;20078;-73
2023/01/16 03:00:20;;;;;;;42.55;25.52;;;6.00;99.90;;;;;;4971807;28;20435;-73
2023/01/16 03:02:46;;;;;;;43.67;26.10;;;6.00;99.90;;;;;;4981120;28;20029;-73
2023/01/16 03:05:12;;;;;;;47.63;25.40;;;6.00;99.90;;;;;;5012683;28;20108;-73
2023/01/16 03:08:00;;;;;;;41.25;25.85;;;6.10;99.90;;;;;;4995140;28;20085;-73
2023/01/16 03:10:37;;;;;;;48.88;24.60;;;6.00;99.90;;;;;;5012615;28;20485;-73
2023/01/16 03:13:22;;;;;;;45.85;24.73;;;6.00;99.90;;;;;;5000937;28;20473;-73
2023/01/16 03:16:01;;;;;;;40.95;22.92;;;6.00;99.90;;;;;;5012274;28;20026;-73
2023/01/16 03:19:06;;;;;;;37.95;24.00;;;6.00;99.90;;;;;;5014386;28;20034;-73
2023/01/16 03:21:50;;;;;;;47.30;24.25;;;5.90;99.90;;;;;;4917583;29;20582;-73
2023/01/16 03:24:34;;;;;;;42.38;25.77;;;5.90;99.90;;;;;;4917856;29;20107;-73
2023/01/16 03:27:11;;;;;;;45.17;26.90;;;5.90;99.90;;;;;;4917264;29;20071;-72
2023/01/16 03:29:59;;;;;;;43.88;26.23;;;5.90;99.90;;;;;;4917538;29;20140;-72
2023/01/16 03:32:37;;;;;;;43.15;24.15;;;5.90;99.90;;;;;;4917690;29;20071;-73
2023/01/16 03:35:08;;;;;;;48.78;25.95;;;5.80;99.90;;;;;;4917284;29;20029;-73
2023/01/16 03:37:42;;;;;;;44.38;26.02;;;5.80;99.90;;;;;;4917519;29;20496;-73
2023/01/16 03:40:16;;;;;;;48.75;25.90;;;5.80;99.90;;;;;;4917297;29;20028;-73
2023/01/16 03:42:53;;;;;;;42.33;27.35;;;5.80;99.90;;;;;;4917548;29;20032;-73
2023/01/16 03:45:24;;;;;;;47.60;28.13;;;5.80;99.90;;;;;;4904908;29;20040;-73
2023/01/16 03:48:00;;;;;;;49.63;27.90;;;5.80;99.90;;;;;;4916907;29;20060;-73
2023/01/16 03:50:27;;;;;;;47.17;27.42;;;5.80;99.90;;;;;;4916102;29;20044;-72
2023/01/16 03:52:57;;;;;;;47.53;27.77;;;5.80;99.90;;;;;;4916931;29;20044;-73
2023/01/16 03:55:35;;;;;;;45.25;28.25;;;5.80;99.90;;;;;;4917565;29;20040;-74
2023/01/16 03:58:26;;;;;;;48.28;27.83;;;5.80;99.90;;;;;;4954624;28;20394;-73
2023/01/16 04:01:08;;;;;;;49.85;26.73;;;5.80;99.90;;;;;;5014995;28;20108;-73
2023/01/16 04:03:49;;;;;;;43.75;27.13;;;5.80;99.90;;;;;;5015651;28;20044;-73
2023/01/16 04:06:39;;;;;;;46.08;28.52;;;5.70;99.90;;;;;;5015173;28;20037;-73
2023/01/16 04:09:12;;;;;;;51.88;27.90;;;5.70;99.90;;;;;;5015567;28;20358;-73
2023/01/16 04:11:39;;;;;;;50.42;27.92;;;5.70;99.90;;;;;;5015623;28;20046;-73
2023/01/16 04:14:07;;;;;;;50.03;27.02;;;5.70;99.90;;;;;;5015314;28;20029;-74
2023/01/16 04:16:33;;;;;;;48.83;26.63;;;5.60;99.90;;;;;;5014963;28;20378;-74
2023/01/16 04:19:01;;;;;;;53.40;27.77;;;5.70;99.90;;;;;;5015237;28;20080;-73
2023/01/16 04:21:28;;;;;;;54.47;29.73;;;5.60;99.90;;;;;;5015263;28;20038;-73
2023/01/16 04:23:56;;;;;;;65.78;35.25;;;5.50;99.90;;;;;;5015183;28;20481;-73
2023/01/16 04:26:22;;;;;;;50.92;32.70;;;5.50;99.90;;;;;;5015169;28;20034;-73
2023/01/16 04:28:53;;;;;;;60.08;39.22;;;5.40;99.90;;;;;;5014085;28;20113;-73
2023/01/16 04:31:19;;;;;;;47.70;27.27;;;5.40;99.90;;;;;;5014636;28;20045;-73
2023/01/16 04:33:45;;;;;;;46.25;27.20;;;5.50;99.90;;;;;;5014817;28;20067;-74
2023/01/16 04:36:10;;;;;;;56.70;29.48;;;5.40;99.90;;;;;;5015016;28;20041;-74
2023/01/16 04:38:36;;;;;;;63.25;32.33;;;5.40;99.90;;;;;;5015002;28;20026;-74
2023/01/16 04:41:02;;;;;;;58.00;29.33;;;5.40;99.90;;;;;;5014956;28;20034;-74
2023/01/16 04:43:28;;;;;;;50.15;30.27;;;5.30;99.90;;;;;;5014750;28;20022;-74
2023/01/16 04:45:54;;;;;;;63.30;32.53;;;5.30;99.90;;;;;;5014685;28;20030;-74
2023/01/16 04:48:20;;;;;;;60.78;32.83;;;5.40;99.90;;;;;;5014731;28;20029;-74
2023/01/16 04:50:49;;;;;;;61.22;35.25;;;5.30;99.90;;;;;;5014660;28;20572;-73
2023/01/16 04:53:15;;;;;;;65.00;34.53;;;5.30;99.90;;;;;;5014235;28;20029;-74
2023/01/16 04:55:42;;;;;;;60.13;30.48;;;5.30;99.90;;;;;;5014761;28;20121;-74
2023/01/16 04:58:08;;;;;;;51.47;29.27;;;5.30;99.90;;;;;;5014504;28;20025;-74
2023/01/16 05:00:34;;;;;;;51.88;30.10;;;5.30;99.90;;;;;;5014634;28;20030;-74
2023/01/16 05:03:00;;;;;;;48.80;29.33;;;5.20;99.90;;;;;;5014111;28;20018;-73
2023/01/16 05:05:25;;;;;;;53.08;30.02;;;5.20;99.90;;;;;;5014071;28;20033;-73
2023/01/16 05:08:15;;;;;;;53.75;29.15;;;5.20;99.90;;;;;;5011525;28;20026;-73
2023/01/16 05:10:37;;;;;;;42.22;25.33;;;5.20;99.90;;;;;;5014335;28;20066;-73
2023/01/16 05:13:03;;;;;;;46.42;25.45;;;5.10;99.90;;;;;;4996854;28;20026;-73
2023/01/16 05:15:29;;;;;;;48.38;24.95;;;5.10;99.90;;;;;;5013732;28;20076;-73
2023/01/16 05:17:55;;;;;;;52.05;26.83;;;5.10;99.90;;;;;;5013972;28;20037;-73
2023/01/16 05:20:21;;;;;;;39.88;23.73;;;5.10;99.90;;;;;;5014152;28;20034;-72
2023/01/16 05:22:48;;;;;;;46.42;25.33;;;5.10;99.90;;;;;;5014302;28;20374;-72
2023/01/16 05:25:14;;;;;;;45.70;25.60;;;5.10;99.90;;;;;;5013592;28;20041;-72
2023/01/16 05:27:39;;;;;;;46.25;25.23;;;5.10;99.90;;;;;;5014066;28;20025;-72
2023/01/16 05:30:06;;;;;;;45.45;26.63;;;5.10;99.90;;;;;;5013728;28;20033;-72
2023/01/16 05:32:32;;;;;;;49.05;25.92;;;5.20;99.90;;;;;;5013927;28;20025;-73
2023/01/16 05:35:01;;;;;;;40.88;23.92;;;5.20;99.90;;;;;;5013904;28;20448;-73
2023/01/16 05:37:28;;;;;;;38.00;22.48;;;5.20;99.90;;;;;;5012219;28;20088;-73
2023/01/16 05:39:56;;;;;;;46.10;26.55;;;5.10;99.90;;;;;;5013880;28;20613;-74
2023/01/16 05:42:24;;;;;;;48.55;27.55;;;5.10;99.90;;;;;;5013739;28;20057;-74
2023/01/16 05:44:53;;;;;;;42.95;25.15;;;5.10;99.90;;;;;;5013799;28;20041;-73
2023/01/16 05:47:20;;;;;;;44.20;24.13;;;5.10;99.90;;;;;;5013362;28;20132;-73
2023/01/16 05:49:46;;;;;;;47.83;27.55;;;5.10;99.90;;;;;;5014179;28;20037;-73
2023/01/16 05:52:12;;;;;;;52.60;27.20;;;5.10;99.90;;;;;;5013618;28;20478;-74
2023/01/16 05:54:38;;;;;;;52.53;28.13;;;5.10;99.90;;;;;;5013793;28;20022;-73
2023/01/16 05:57:04;;;;;;;44.88;25.55;;;5.10;99.90;;;;;;5013046;28;20022;-73
2023/01/16 05:59:30;;;;;;;47.58;24.77;;;5.00;99.90;;;;;;5013508;28;20033;-73
2023/01/16 06:01:59;;;;;;;47.47;27.70;;;5.10;99.90;;;;;;5013638;28;20034;-73
2023/01/16 06:04:24;;;;;;;45.92;28.27;;;5.10;99.90;;;;;;5013458;28;20030;-73
2023/01/16 06:06:50;;;;;;;51.67;30.00;;;5.00;99.90;;;;;;5012187;28;20045;-73
2023/01/16 06:09:16;;;;;;;50.30;30.35;;;5.00;99.90;;;;;;5012848;28;20497;-73
2023/01/16 06:11:42;;;;;;;52.35;29.02;;;5.00;99.90;;;;;;5013231;28;20496;-74
2023/01/16 06:14:08;;;;;;;51.88;28.58;;;5.00;99.90;;;;;;5013244;28;20025;-73
2023/01/16 06:16:34;;;;;;;40.45;23.77;;;5.00;99.90;;;;;;5013636;28;20515;-73
2023/01/16 06:19:01;;;;;;;43.33;21.75;;;5.00;99.90;;;;;;5012824;28;20032;-73
2023/01/16 06:21:27;;;;;;;35.90;20.02;;;5.00;99.90;;;;;;5013578;28;20100;-73
2023/01/16 06:23:53;;;;;;;31.55;18.42;;;5.00;99.90;;;;;;5013120;28;20025;-73
2023/01/16 06:26:19;;;;;;;32.63;19.55;;;5.00;99.90;;;;;;5013180;28;20026;-73
2023/01/16 06:28:46;;;;;;;30.23;17.77;;;5.00;99.90;;;;;;5013284;28;20018;-73
2023/01/16 06:31:12;;;;;;;32.25;17.50;;;5.00;99.90;;;;;;5012953;28;20073;-73
2023/01/16 06:33:38;;;;;;;29.05;18.13;;;5.10;99.90;;;;;;5013426;28;20093;-73
2023/01/16 06:36:04;;;;;;;37.85;19.70;;;5.10;99.90;;;;;;5013065;28;20112;-73
2023/01/16 06:38:30;;;;;;;34.65;20.70;;;5.10;99.90;;;;;;5013249;28;20030;-73
2023/01/16 06:40:56;;;;;;;34.00;18.75;;;5.10;99.90;;;;;;5013143;28;20030;-73
2023/01/16 06:43:23;;;;;;;32.45;17.73;;;5.20;99.90;;;;;;5013288;28;20528;-73
2023/01/16 06:45:50;;;;;;;36.25;20.83;;;5.20;99.90;;;;;;5013052;28;20033;-73
2023/01/16 06:48:15;;;;;;;38.13;22.38;;;5.30;99.90;;;;;;5012819;28;20375;-73
2023/01/16 06:50:41;;;;;;;36.88;24.55;;;5.30;99.90;;;;;;5012985;28;20088;-73
2023/01/16 06:53:07;;;;;;;36.72;25.20;;;5.30;99.90;;;;;;5014684;28;20025;-73
2023/01/16 06:55:33;;;;;;;37.35;23.50;;;5.40;99.90;;;;;;5016809;28;20034;-73
2023/01/16 06:57:59;;;;;;;27.77;20.08;;;5.30;99.90;;;;;;5016946;28;20145;-73
2023/01/16 07:00:25;;;;;;;35.17;22.42;;;5.30;99.90;;;;;;5016190;28;20940;-73
2023/01/16 07:02:54;;;;;;;31.88;19.33;;;5.30;99.90;;;;;;5014377;28;20022;-73
2023/01/16 07:05:23;;;;;;;36.38;21.50;;;5.20;99.90;;;;;;5016586;28;20036;-73
2023/01/16 07:07:49;;;;;;;36.30;20.85;;;5.20;99.90;;;;;;5016811;28;20026;-73
2023/01/16 07:10:16;;;;;;;33.95;19.75;;;5.20;99.90;;;;;;5016689;28;20053;-73
2023/01/16 07:12:42;;;;;;;41.67;26.60;;;5.20;99.90;;;;;;5016256;28;20026;-73
2023/01/16 07:23:29;;;;;;;38.50;22.67;;;5.30;99.90;;;;;;5016010;28;21607;-73
2023/01/16 07:25:58;;;;;;;49.85;25.95;;;5.30;99.90;;;;;;5004380;28;20053;-73
2023/01/16 07:28:24;;;;;;;50.78;29.25;;;5.40;99.90;;;;;;5016386;28;20030;-73
2023/01/16 07:30:50;;;;;;;48.67;29.08;;;5.40;99.90;;;;;;5012677;28;20032;-73
2023/01/16 07:33:16;;;;;;;50.08;28.55;;;5.40;99.90;;;;;;5011184;28;20034;-73
2023/01/16 07:35:43;;;;;;;51.03;27.52;;;5.50;99.90;;;;;;5016205;28;20042;-73
2023/01/16 07:38:09;;;;;;;48.20;24.67;;;5.60;99.90;;;;;;5016119;28;20030;-73
2023/01/16 07:40:35;;;;;;;42.67;23.77;;;5.70;99.90;;;;;;5016337;28;20052;-74
2023/01/16 07:43:00;;;;;;;45.88;24.67;;;5.80;99.90;;;;;;5015651;28;20359;-73
2023/01/16 07:45:26;;;;;;;40.05;23.70;;;5.80;99.90;;;;;;5016512;28;20052;-73
2023/01/16 07:47:52;;;;;;;41.67;26.85;;;5.90;99.90;;;;;;5015572;28;20124;-74
2023/01/16 07:50:18;;;;;;;35.55;22.42;;;6.00;99.90;;;;;;5015793;28;20034;-73
2023/01/16 07:52:45;;;;;;;34.22;21.05;;;6.00;99.90;;;;;;5016071;28;20474;-73
2023/01/16 07:55:12;;;;;;;37.70;19.38;;;6.10;99.90;;;;;;5016057;28;20018;-73
2023/01/16 07:57:38;;;;;;;38.33;19.63;;;6.10;99.90;;;;;;5015545;28;20030;-73
2023/01/16 08:00:06;;;;;;;32.17;17.58;;;6.10;99.90;;;;;;5012915;28;20037;-73
2023/01/16 08:02:38;;;;;;;31.95;18.00;;;6.20;99.90;;;;;;5014915;28;20053;-73
2023/01/16 08:05:04;;;;;;;31.70;18.73;;;6.20;99.90;;;;;;5015517;28;20488;-73
2023/01/16 08:07:30;;;;;;;28.63;17.10;;;6.20;99.90;;;;;;5014934;28;20029;-73
2023/01/16 08:09:56;;;;;;;34.35;19.25;;;6.20;99.90;;;;;;5014819;28;20014;-73
2023/01/16 08:12:22;;;;;;;33.33;18.85;;;6.30;99.90;;;;;;5014521;28;20049;-73
2023/01/16 08:14:48;;;;;;;33.95;17.90;;;6.30;99.90;;;;;;5015521;28;20029;-73
2023/01/16 08:17:14;;;;;;;30.42;17.60;;;6.40;99.90;;;;;;5015516;28;20026;-74
2023/01/16 08:19:40;;;;;;;32.42;18.17;;;6.40;99.90;;;;;;5011357;28;20489;-73
2023/01/16 08:22:06;;;;;;;31.15;16.70;;;6.50;99.90;;;;;;5013098;28;20030;-73
2023/01/16 08:24:32;;;;;;;28.15;16.38;;;6.50;99.90;;;;;;5015280;28;20026;-73
2023/01/16 08:26:58;;;;;;;28.58;16.45;;;6.50;99.90;;;;;;5015327;28;20029;-75
2023/01/16 08:29:25;;;;;;;27.88;16.05;;;6.60;99.90;;;;;;5015329;28;20081;-72
2023/01/16 08:31:51;;;;;;;28.67;13.73;;;6.60;99.90;;;;;;5014683;28;20045;-73
2023/01/16 08:34:17;;;;;;;23.35;13.23;;;6.70;99.90;;;;;;5015401;28;20029;-72
2023/01/16 08:36:43;;;;;;;29.48;13.50;;;6.70;99.90;;;;;;5014670;28;20163;-73
2023/01/16 08:39:10;;;;;;;28.92;13.82;;;6.80;99.90;;;;;;5015348;28;20104;-73
2023/01/16 08:52:42;;;;;;;28.08;17.13;;;7.20;99.90;;;;;;5014752;28;20038;-73
2023/01/16 08:55:08;;;;;;;27.98;15.02;;;7.20;99.90;;;;;;5014679;28;20102;-73
2023/01/16 08:57:34;;;;;;;30.55;16.02;;;7.30;99.90;;;;;;5014747;28;20062;-73
2023/01/16 09:00:01;;;;;;;29.63;15.55;;;7.40;99.90;;;;;;5014546;28;20084;-73
2023/01/16 09:02:28;;;;;;;26.83;15.05;;;7.40;99.90;;;;;;5014987;28;20037;-73
2023/01/16 09:04:54;;;;;;;30.67;15.27;;;7.40;99.90;;;;;;5014813;28;20113;-73
2023/01/16 09:07:21;;;;;;;30.70;16.98;;;7.40;99.90;;;;;;5014106;28;20033;-73
2023/01/16 09:09:47;;;;;;;25.25;15.10;;;7.40;99.90;;;;;;5014451;28;20350;-73
2023/01/16 09:14:58;;;;;;;27.58;13.13;;;7.50;99.90;;;;;;5013894;28;20413;-73
2023/01/16 09:17:25;;;;;;;24.27;13.40;;;7.50;99.90;;;;;;5014374;28;20084;-73
2023/01/16 09:19:52;;;;;;;24.10;13.10;;;7.50;99.90;;;;;;5014219;28;20466;-73
2023/01/16 09:22:18;;;;;;;21.75;13.40;;;7.60;99.90;;;;;;5014130;28;20033;-73
2023/01/16 09:24:44;;;;;;;31.02;14.00;;;7.70;99.90;;;;;;5013952;28;20025;-73
2023/01/16 09:27:12;;;;;;;37.58;23.52;;;7.70;99.90;;;;;;5014167;28;20433;-73
2023/01/16 09:29:39;;;;;;;52.38;31.38;;;7.80;99.90;;;;;;5013611;28;20061;-73
2023/01/16 09:32:08;;;;;;;51.35;32.70;;;7.90;99.90;;;;;;5012775;28;20477;-73
2023/01/16 09:34:38;;;;;;;38.85;19.67;;;7.90;99.90;;;;;;5003600;28;20026;-73
2023/01/16 09:37:05;;;;;;;27.67;15.55;;;8.00;99.90;;;;;;5013687;28;20025;-73
2023/01/16 09:39:32;;;;;;;32.25;17.60;;;8.10;99.90;;;;;;5013978;28;20365;-73
2023/01/16 09:44:50;;;;;;;27.15;15.32;;;8.20;99.90;;;;;;5006460;28;20026;-72
2023/01/16 09:47:20;;;;;;;35.22;19.58;;;8.30;99.90;;;;;;5013447;28;20041;-73
2023/01/16 09:49:55;;;;;;;37.90;20.30;;;8.30;99.90;;;;;;5010916;28;20037;-73
2023/01/16 09:58:36;;;;;;;26.95;13.40;;;8.40;99.90;;;;;;5005735;28;20034;-73
2023/01/16 10:01:08;;;;;;;26.98;15.70;;;8.40;99.90;;;;;;4995561;28;20068;-73
2023/01/16 10:03:42;;;;;;;26.70;12.98;;;8.40;99.90;;;;;;5013028;28;20108;-73
2023/01/16 10:06:26;;;;;;;20.65;12.30;;;8.50;99.90;;;;;;4995623;28;20378;-73
2023/01/16 10:08:57;;;;;;;24.33;14.07;;;8.50;99.90;;;;;;5012317;28;20025;-73
2023/01/16 10:11:49;;;;;;;23.48;13.38;;;8.50;99.90;;;;;;5011834;28;20038;-73
2023/01/16 10:14:53;;;;;;;28.25;16.05;;;8.50;99.90;;;;;;4992355;28;20029;-73
2023/01/16 10:17:31;;;;;;;;;;;8.60;99.90;;;;;;5012963;28;20053;-72
2023/01/16 10:20:18;;;;;;;23.77;14.20;;;8.60;99.90;;;;;;5013017;28;19920;-72
2023/01/16 10:23:12;;;;;;;27.08;16.60;;;8.60;99.90;;;;;;5003157;28;20029;-73
2023/01/16 10:25:52;;;;;;;27.83;15.93;;;8.70;99.90;;;;;;5012331;28;20033;-73
2023/01/16 10:28:27;;;;;;;25.23;15.70;;;8.70;99.90;;;;;;5011790;28;20485;-74
2023/01/16 10:31:11;;;;;;;22.75;12.73;;;8.70;99.90;;;;;;5013204;28;20065;-74
2023/01/16 10:33:55;;;;;;;29.13;13.45;;;8.70;99.90;;;;;;5011654;28;20022;-74
2023/01/16 10:36:26;;;;;;;27.02;12.57;;;8.70;99.90;;;;;;5012021;28;20114;-71
2023/01/16 10:38:56;;;;;;;25.65;13.20;;;8.60;99.90;;;;;;5013202;28;20469;-73
2023/01/16 10:50:21;;;;;;;33.10;19.42;;;8.50;99.90;;;;;;5012568;28;20501;-73
2023/01/16 10:52:48;;;;;;;23.73;14.75;;;8.50;99.90;;;;;;5012530;28;20029;-73
2023/01/16 10:55:15;;;;;;;25.33;15.73;;;8.50;99.90;;;;;;5011763;28;20469;-73
2023/01/16 10:57:54;;;;;;;23.08;14.52;;;8.50;99.90;;;;;;5013001;28;20026;-74
2023/01/16 11:00:39;;;;;;;27.70;15.35;;;8.50;99.90;;;;;;5012954;28;20164;-74
2023/01/16 11:03:19;;;;;;;26.17;14.95;;;8.50;99.90;;;;;;5011499;28;20018;-73
2023/01/16 11:05:44;;;;;;;21.00;13.25;;;8.50;99.90;;;;;;5012840;28;20033;-73
2023/01/16 11:08:11;;;;;;;20.73;12.70;;;8.50;99.90;;;;;;5012706;28;20022;-73
2023/01/16 11:10:39;;;;;;;18.80;12.13;;;8.60;99.90;;;;;;5012645;28;20034;-73
2023/01/16 11:18:28;;;;;;;31.40;18.95;;;8.50;99.90;;;;;;5011620;28;20117;-73
2023/01/16 11:18:53;;;;;;;38.40;22.13;;;8.50;99.90;;;;;;5011594;28;20037;-73
2023/01/16 11:21:31;;;;;;;30.23;15.63;;;8.50;99.90;;;;;;5011356;28;20029;-73
2023/01/16 11:24:14;;;;;;;29.33;15.93;;;8.50;99.90;;;;;;5012449;28;20033;-73
2023/01/16 11:26:45;;;;;;;29.55;13.63;;;8.50;99.90;;;;;;5011361;28;20026;-73
2023/01/16 11:29:16;;;;;;;23.77;12.95;;;8.50;99.90;;;;;;5012894;28;20426;-73
2023/01/16 11:31:49;;;;;;;25.77;11.93;;;8.50;99.90;;;;;;5012684;28;20184;-73
2023/01/16 11:34:15;;;;;;;26.10;14.27;;;8.50;99.90;;;;;;4993929;28;20026;-73
2023/01/16 11:36:42;;;;;;;29.42;15.75;;;8.50;99.90;;;;;;5012391;28;20057;-73
2023/01/16 11:39:20;;;;;;;27.05;15.63;;;8.50;99.90;;;;;;5013912;28;20030;-72
2023/01/16 11:41:50;;;;;;;50.35;22.90;;;8.50;99.90;;;;;;5015689;28;20114;-73
2023/01/16 11:47:06;;;;;;;28.95;17.75;;;8.50;99.90;;;;;;5012489;28;20074;-73
2023/01/16 11:49:55;;;;;;;25.35;14.15;;;8.50;99.90;;;;;;5014418;28;20030;-73
2023/01/16 11:52:29;;;;;;;39.10;18.13;;;8.50;99.90;;;;;;5013445;28;20037;-73
2023/01/16 11:55:00;;;;;;;36.53;18.20;;;8.50;99.90;;;;;;5011092;28;20022;-73
2023/01/16 11:57:42;;;;;;;33.10;17.08;;;8.50;99.90;;;;;;5014395;28;20037;-72
2023/01/16 12:00:27;;;;;;;28.05;17.15;;;8.50;99.90;;;;;;5013085;28;20112;-72
2023/01/16 12:03:21;;;;;;;24.25;13.95;;;8.50;99.90;;;;;;5014386;28;20022;-73
2023/01/16 12:06:18;;;;;;;36.08;17.48;;;8.50;99.90;;;;;;5014054;28;20041;-73
2023/01/16 12:09:15;;;;;;;39.47;19.63;;;8.60;99.90;;;;;;5013505;28;20033;-73
2023/01/16 12:11:54;;;;;;;44.35;23.58;;;8.60;99.90;;;;;;5011908;28;20445;-73
2023/01/16 12:14:34;;;;;;;21.05;12.60;;;8.60;99.90;;;;;;5014132;28;20433;-73
2023/01/16 12:17:35;;;;;;;20.50;12.25;;;8.60;99.90;;;;;;5013879;28;20031;-74
2023/01/16 12:20:16;;;;;;;29.40;16.20;;;8.60;99.90;;;;;;5014250;28;20030;-74
2023/01/16 12:22:58;;;;;;;20.42;10.50;;;8.60;99.90;;;;;;5014111;28;20033;-73
2023/01/16 12:25:45;;;;;;;22.45;12.55;;;8.60;99.90;;;;;;5014216;28;20161;-74
2023/01/16 12:28:27;;;;;;;25.42;14.13;;;8.70;99.90;;;;;;5014163;28;20030;-73
2023/01/16 12:31:44;;;;;;;34.50;20.98;;;8.80;99.90;;;;;;5013372;28;20033;-73
2023/01/16 12:34:46;;;;;;;28.10;15.52;;;8.80;99.90;;;;;;5006035;28;20038;-73
2023/01/16 12:37:50;;;;;;;27.35;12.88;;;8.90;99.90;;;;;;5011489;28;20382;-73
2023/01/16 12:40:16;;;;;;;;;;;9.00;99.90;;;;;;5003263;28;20026;-72
2023/01/16 12:43:18;;;;;;;22.77;12.20;;;9.10;99.90;;;;;;5013736;28;20265;-74
2023/01/16 12:49:02;;;;;;;25.80;12.15;;;9.10;99.90;;;;;;5070245;28;20395;-71
2023/01/16 12:51:57;;;;;;;25.92;13.75;;;9.20;99.90;;;;;;5064595;28;20116;-72
2023/01/16 12:54:41;;;;;;;25.17;13.25;;;9.20;99.90;;;;;;5046652;28;20052;-71
2023/01/16 12:57:30;;;;;;;27.67;14.23;;;9.10;99.90;;;;;;5050363;28;20416;-71
2023/01/16 13:00:20;;;;;;;24.33;13.00;;;9.10;99.90;;;;;;5045088;28;20026;-74
2023/01/16 13:02:55;;;;;;;26.02;12.98;;;9.10;99.90;;;;;;5050260;28;20108;-73
2023/01/16 13:05:26;;;;;;;28.23;13.50;;;9.20;99.90;;;;;;5050134;28;20086;-72
2023/01/16 13:08:23;;;;;;;20.90;10.73;;;9.30;99.90;;;;;;5049735;28;20033;-71
2023/01/16 13:13:49;;;;;;;21.38;11.20;;;9.70;99.90;;;;;;5049988;28;20029;-71
2023/01/16 13:16:27;;;;;;;25.70;12.85;;;9.70;99.90;;;;;;5048457;28;20077;-71
2023/01/16 13:18:58;;;;;;;24.33;12.18;;;9.70;99.90;;;;;;5049753;28;20057;-71
2023/01/16 13:21:33;;;;;;;21.17;11.90;;;9.70;99.90;;;;;;5049887;28;20083;-71
2023/01/16 13:24:18;;;;;;;21.92;11.40;;;9.70;99.90;;;;;;5049029;28;20041;-71
2023/01/16 13:26:47;;;;;;;19.05;10.80;;;9.70;99.90;;;;;;5050702;28;20108;-71
2023/01/16 13:29:20;;;;;;;19.00;10.68;;;9.70;99.90;;;;;;5050233;28;20040;-72
2023/01/16 13:31:54;;;;;;;18.63;10.65;;;9.70;99.90;;;;;;5063411;28;20033;-72
2023/01/16 13:34:20;;;;;;;22.48;11.07;;;9.70;99.90;;;;;;5049476;28;20028;-71
2023/01/16 13:37:24;;;;;;;20.00;10.68;;;9.70;99.90;;;;;;5049579;28;20025;-71
2023/01/16 13:40:14;;;;;;;17.85;10.18;;;9.70;99.90;;;;;;5031564;28;20033;-71
2023/01/16 13:42:52;;;;;;;19.83;10.52;;;9.70;99.90;;;;;;5027420;28;20485;-71
2023/01/16 13:45:48;;;;;;;16.77;9.88;;;9.70;99.90;;;;;;5030633;28;20112;-72
2023/01/16 13:48:36;;;;;;;16.90;9.35;;;9.80;99.90;;;;;;5026954;28;20509;-71
2023/01/16 13:51:14;;;;;;;20.52;11.52;;;9.70;99.90;;;;;;5027109;28;20030;-72
2023/01/16 13:53:41;;;;;;;18.90;10.88;;;9.70;99.90;;;;;;5027114;28;20030;-71
2023/01/16 13:56:20;;;;;;;20.42;11.18;;;9.70;99.90;;;;;;5027144;28;20075;-71
2023/01/16 13:58:53;;;;;;;20.58;11.68;;;9.70;99.90;;;;;;5021660;28;20065;-71